Time;durP1;ratioP1;P1;durP2;ratioP2;P2;SDS_P1;SDS_P2;PMS_P1;PMS_P2;Temp;Humidity;BMP_temperature;BMP_pressure;BME280_temperature;BME280_humidity;BME280_pressure;Samples;Min_cycle;Max_cycle;Signal;HPM_P1;HPM_P2
2023/06/10 00:01:34;;;;;;;7.23;6.73;;;20.20;99.90;;;;;;5113908;28;20160;-69
2023/06/10 00:03:59;;;;;;;8.23;7.53;;;20.20;99.90;;;;;;5113751;28;20274;-69
2023/06/10 00:06:25;;;;;;;8.80;8.20;;;20.20;99.90;;;;;;5113760;28;20439;-69
2023/06/10 00:08:51;;;;;;;8.87;7.60;;;20.20;99.90;;;;;;5113401;28;20207;-69
2023/06/10 00:11:16;;;;;;;7.80;7.20;;;20.10;99.90;;;;;;5113780;28;20169;-68
2023/06/10 00:13:42;;;;;;;7.83;7.10;;;19.90;99.90;;;;;;5113755;28;20774;-68
2023/06/10 00:16:07;;;;;;;8.23;7.63;;;19.90;99.90;;;;;;5113816;28;20276;-69
2023/06/10 00:18:36;;;;;;;9.00;8.10;;;19.80;99.90;;;;;;5113772;28;20188;-69
2023/06/10 00:21:04;;;;;;;9.03;8.23;;;19.70;99.90;;;;;;5113880;28;20550;-69
2023/06/10 00:23:37;;;;;;;9.00;8.30;;;19.60;99.90;;;;;;5113718;28;20494;-69
2023/06/10 00:26:03;;;;;;;8.10;7.40;;;19.60;99.90;;;;;;5113404;28;20452;-68
2023/06/10 00:28:29;;;;;;;8.13;7.43;;;19.50;99.90;;;;;;5112938;28;20458;-69
2023/06/10 00:30:54;;;;;;;8.07;7.47;;;19.60;99.90;;;;;;5113601;28;20409;-69
2023/06/10 00:33:20;;;;;;;7.90;7.30;;;19.60;99.90;;;;;;5113653;28;20165;-69
2023/06/10 00:35:46;;;;;;;8.80;8.10;;;19.50;99.90;;;;;;5113492;28;20161;-69
2023/06/10 00:38:14;;;;;;;7.70;7.10;;;19.40;99.90;;;;;;5113557;28;20422;-69
2023/06/10 00:40:43;;;;;;;8.27;7.57;;;19.30;99.90;;;;;;5113461;28;20568;-69
2023/06/10 00:43:09;;;;;;;8.13;7.43;;;19.30;99.90;;;;;;5112679;28;20463;-68
2023/06/10 00:45:35;;;;;;;8.40;7.80;;;19.40;99.90;;;;;;5113448;28;20449;-68
2023/06/10 00:48:01;;;;;;;8.90;8.20;;;19.30;99.90;;;;;;5113416;28;20196;-68
2023/06/10 00:50:27;;;;;;;9.50;8.60;;;19.30;99.90;;;;;;5113725;28;20402;-68
2023/06/10 00:52:56;;;;;;;9.73;8.40;;;19.40;99.90;;;;;;5113227;28;20418;-68
2023/06/10 00:55:23;;;;;;;8.93;7.77;;;19.30;99.90;;;;;;5112986;28;20395;-68
2023/06/10 00:57:49;;;;;;;8.73;7.93;;;19.10;99.90;;;;;;5113079;28;20414;-68
2023/06/10 01:00:15;;;;;;;8.67;7.93;;;19.10;99.90;;;;;;5113230;28;20479;-68
2023/06/10 01:02:41;;;;;;;8.30;7.60;;;19.00;99.90;;;;;;5113525;28;20426;-68
2023/06/10 01:05:08;;;;;;;8.70;7.80;;;19.10;99.90;;;;;;5113823;28;20402;-68
2023/06/10 01:07:47;;;;;;;8.60;7.90;;;19.10;99.90;;;;;;5113043;28;20544;-68
2023/06/10 01:10:40;;;;;;;8.77;8.07;;;19.10;99.90;;;;;;5113874;28;20397;-68
2023/06/10 01:13:11;;;;;;;9.53;8.50;;;19.00;99.90;;;;;;5113331;28;20403;-69
2023/06/10 01:15:37;;;;;;;8.40;7.80;;;18.90;99.90;;;;;;5113298;28;20390;-68
2023/06/10 01:18:08;;;;;;;7.90;7.30;;;19.00;99.90;;;;;;5113005;28;20437;-68
2023/06/10 01:20:36;;;;;;;8.83;8.00;;;19.10;99.90;;;;;;5113301;28;20479;-68
2023/06/10 01:23:02;;;;;;;8.10;7.50;;;19.20;99.90;;;;;;5112014;28;20436;-68
2023/06/10 01:25:29;;;;;;;8.87;8.10;;;19.20;99.90;;;;;;5112811;28;20444;-68
2023/06/10 01:28:05;;;;;;;8.30;7.60;;;19.20;99.90;;;;;;5112300;28;20465;-68
2023/06/10 01:30:37;;;;;;;8.10;7.40;;;19.20;99.90;;;;;;5112806;28;20884;-68
2023/06/10 01:33:07;;;;;;;8.50;7.80;;;19.20;99.90;;;;;;5112991;28;20466;-68
2023/06/10 01:35:35;;;;;;;8.93;8.23;;;19.10;99.90;;;;;;5112797;28;20398;-68
2023/06/10 01:38:02;;;;;;;8.60;7.90;;;19.10;99.90;;;;;;5112189;28;20422;-69
2023/06/10 01:40:29;;;;;;;8.00;7.40;;;19.00;99.90;;;;;;5112607;28;20539;-68
2023/06/10 01:42:55;;;;;;;8.40;7.70;;;18.90;99.90;;;;;;5112472;28;20395;-68
2023/06/10 01:45:21;;;;;;;8.20;7.40;;;18.90;99.90;;;;;;5112618;28;20519;-68
2023/06/10 01:47:46;;;;;;;9.43;8.00;;;18.80;99.90;;;;;;5112812;28;20495;-68
2023/06/10 01:50:12;;;;;;;8.83;7.87;;;18.80;99.90;;;;;;5112687;28;20641;-68
2023/06/10 01:52:37;;;;;;;7.93;7.30;;;18.80;99.90;;;;;;5112514;28;20624;-68
2023/06/10 01:55:04;;;;;;;8.50;7.90;;;18.80;99.90;;;;;;5112318;28;20511;-69
2023/06/10 01:57:29;;;;;;;7.87;7.27;;;18.90;99.90;;;;;;5112361;28;20341;-68
2023/06/10 01:59:55;;;;;;;7.40;6.80;;;18.90;99.90;;;;;;5112754;28;20488;-68
2023/06/10 02:02:22;;;;;;;7.23;6.73;;;18.80;99.90;;;;;;5112388;28;20631;-68
2023/06/10 02:04:47;;;;;;;9.00;8.10;;;18.70;99.90;;;;;;5112358;28;20173;-68
2023/06/10 02:07:13;;;;;;;7.50;6.90;;;18.60;99.90;;;;;;5112592;28;20417;-68
2023/06/10 02:09:38;;;;;;;8.43;7.73;;;18.60;99.90;;;;;;5115563;28;20248;-69
2023/06/10 02:12:06;;;;;;;7.60;7.00;;;18.60;99.90;;;;;;5097554;28;20172;-68
2023/06/10 02:14:33;;;;;;;7.10;6.60;;;18.60;99.90;;;;;;5116472;28;20588;-67
2023/06/10 02:16:58;;;;;;;8.50;7.80;;;18.60;99.90;;;;;;5115998;28;20398;-69
2023/06/10 02:19:25;;;;;;;8.50;7.83;;;18.40;99.90;;;;;;5115900;28;20931;-68
2023/06/10 02:21:51;;;;;;;7.73;7.13;;;18.40;99.90;;;;;;5115858;28;20172;-68
2023/06/10 02:24:16;;;;;;;7.57;6.93;;;18.40;99.90;;;;;;5114574;28;20418;-67
2023/06/10 02:26:42;;;;;;;7.70;7.10;;;18.40;99.90;;;;;;5116177;28;20218;-68
2023/06/10 02:29:07;;;;;;;8.47;7.77;;;18.40;99.90;;;;;;5115431;28;20286;-68
2023/06/10 02:31:35;;;;;;;8.37;7.77;;;18.40;99.90;;;;;;5115811;28;20200;-68
2023/06/10 02:34:01;;;;;;;7.40;6.80;;;18.50;99.90;;;;;;5115772;28;20157;-68
2023/06/10 02:36:27;;;;;;;7.60;7.00;;;18.50;99.90;;;;;;5115801;28;20783;-68
2023/06/10 02:38:53;;;;;;;7.80;7.10;;;18.30;99.90;;;;;;5115170;28;20558;-68
2023/06/10 02:41:19;;;;;;;8.53;7.83;;;18.30;99.90;;;;;;5116262;28;20407;-68
2023/06/10 02:43:44;;;;;;;9.00;8.10;;;18.30;99.90;;;;;;5115750;28;20398;-68
2023/06/10 02:46:10;;;;;;;7.60;7.00;;;18.30;99.90;;;;;;5115207;28;20176;-68
2023/06/10 02:48:45;;;;;;;7.87;7.20;;;18.20;99.90;;;;;;5115299;28;20197;-68
2023/06/10 02:51:10;;;;;;;8.40;7.80;;;18.20;99.90;;;;;;5115277;28;20243;-68
2023/06/10 02:53:36;;;;;;;8.00;7.30;;;18.10;99.90;;;;;;5114797;28;20445;-68
2023/06/10 02:56:02;;;;;;;7.70;7.10;;;18.10;99.90;;;;;;5115460;28;20161;-69
2023/06/10 02:58:27;;;;;;;7.83;7.23;;;18.10;99.90;;;;;;5115175;28;20249;-67
2023/06/10 03:00:53;;;;;;;9.30;7.43;;;18.00;99.90;;;;;;5115315;28;20175;-68
2023/06/10 03:03:19;;;;;;;8.20;7.50;;;18.00;99.90;;;;;;5115244;28;20245;-68
2023/06/10 03:05:45;;;;;;;7.27;6.67;;;18.00;99.90;;;;;;5115236;28;20204;-68
2023/06/10 03:08:10;;;;;;;7.60;6.90;;;18.00;99.90;;;;;;5114766;28;20454;-68
2023/06/10 03:10:36;;;;;;;8.03;7.27;;;17.90;99.90;;;;;;5114587;28;20165;-68
2023/06/10 03:13:02;;;;;;;8.10;7.30;;;17.80;99.90;;;;;;5115032;28;20161;-68
2023/06/10 03:15:28;;;;;;;6.73;6.23;;;17.80;99.90;;;;;;5115004;28;20172;-68
2023/06/10 03:17:55;;;;;;;8.00;7.27;;;17.80;99.90;;;;;;5114644;28;20225;-68
2023/06/10 03:20:21;;;;;;;6.67;6.17;;;17.90;99.90;;;;;;5114885;28;20403;-68
2023/06/10 03:22:47;;;;;;;7.40;6.80;;;17.90;99.90;;;;;;5114567;28;20412;-68
2023/06/10 03:25:13;;;;;;;6.93;6.43;;;18.00;99.90;;;;;;5095031;28;20791;-68
2023/06/10 03:27:41;;;;;;;8.50;7.77;;;18.00;99.90;;;;;;5114418;28;20651;-68
2023/06/10 03:30:07;;;;;;;6.90;6.40;;;17.90;99.90;;;;;;5096427;28;20414;-68
2023/06/10 03:32:33;;;;;;;7.20;6.70;;;17.90;99.90;;;;;;5114588;28;20403;-68
2023/06/10 03:34:58;;;;;;;8.10;7.40;;;17.90;99.90;;;;;;5114396;28;20907;-68
2023/06/10 03:37:27;;;;;;;7.20;6.60;;;17.90;99.90;;;;;;5114518;28;20193;-69
2023/06/10 03:39:52;;;;;;;7.80;7.20;;;17.90;99.90;;;;;;5113997;28;20177;-68
2023/06/10 03:42:18;;;;;;;7.33;6.73;;;17.80;99.90;;;;;;5114123;28;20405;-68
2023/06/10 03:44:43;;;;;;;7.50;6.90;;;17.90;99.90;;;;;;5113715;28;20181;-68
2023/06/10 03:47:09;;;;;;;7.27;6.67;;;17.90;99.90;;;;;;5114209;28;20333;-68
2023/06/10 03:49:36;;;;;;;8.20;7.50;;;17.80;99.90;;;;;;5114006;28;20179;-68
2023/06/10 03:52:02;;;;;;;8.90;8.10;;;17.80;99.90;;;;;;5114165;28;20165;-68
2023/06/10 03:54:27;;;;;;;7.60;7.00;;;17.90;99.90;;;;;;5113749;28;20552;-67
2023/06/10 03:56:53;;;;;;;8.20;7.50;;;18.00;99.90;;;;;;5114343;28;20407;-68
2023/06/10 03:59:19;;;;;;;7.87;7.27;;;18.00;99.90;;;;;;5114687;28;20596;-68
2023/06/10 04:01:45;;;;;;;8.23;7.53;;;18.00;99.90;;;;;;5114477;28;20245;-68
2023/06/10 04:04:14;;;;;;;8.20;7.50;;;18.00;99.90;;;;;;5113814;28;20567;-68
2023/06/10 04:06:41;;;;;;;7.63;7.03;;;17.90;99.90;;;;;;5113724;28;20165;-68
2023/06/10 04:09:07;;;;;;;7.50;6.80;;;17.90;99.90;;;;;;5113322;28;20454;-68
2023/06/10 04:11:33;;;;;;;7.80;7.20;;;18.00;99.90;;;;;;5113688;28;20430;-68
2023/06/10 04:13:58;;;;;;;8.03;7.43;;;18.10;99.90;;;;;;5114029;28;20939;-68
2023/06/10 04:16:24;;;;;;;7.57;6.87;;;18.10;99.90;;;;;;5113518;28;20165;-68
2023/06/10 04:18:49;;;;;;;8.27;7.47;;;18.10;99.90;;;;;;5113666;28;20231;-68
2023/06/10 04:21:15;;;;;;;7.63;7.03;;;18.00;99.90;;;;;;5113876;28;20169;-68
2023/06/10 04:23:40;;;;;;;7.63;7.03;;;18.00;99.90;;;;;;5112760;28;20177;-68
2023/06/10 04:26:07;;;;;;;7.27;6.67;;;18.10;99.90;;;;;;5113334;28;20546;-68
2023/06/10 04:28:32;;;;;;;7.47;6.77;;;18.10;99.90;;;;;;5113327;28;20206;-68
2023/06/10 04:30:58;;;;;;;7.83;7.10;;;18.10;99.90;;;;;;5113021;28;20489;-68
2023/06/10 04:33:24;;;;;;;7.90;7.20;;;18.10;99.90;;;;;;5113380;28;20164;-67
2023/06/10 04:35:50;;;;;;;6.83;6.33;;;18.00;99.90;;;;;;5113620;28;20212;-68
2023/06/10 04:38:15;;;;;;;8.23;7.63;;;18.10;99.90;;;;;;5113091;28;20196;-67
2023/06/10 04:40:41;;;;;;;7.40;6.80;;;18.10;99.90;;;;;;5113037;28;20421;-67
2023/06/10 04:43:07;;;;;;;6.70;6.20;;;18.20;99.90;;;;;;5113304;28;20538;-68
2023/06/10 04:45:32;;;;;;;6.80;6.30;;;18.40;99.90;;;;;;5113447;28;20175;-68
2023/06/10 04:47:58;;;;;;;7.57;6.97;;;18.40;99.90;;;;;;5112824;28;20612;-67
2023/06/10 04:50:24;;;;;;;6.83;6.23;;;18.40;99.90;;;;;;5113475;28;20180;-68
2023/06/10 04:52:49;;;;;;;6.60;6.00;;;18.50;99.90;;;;;;5113401;28;20176;-68
2023/06/10 04:55:16;;;;;;;7.47;6.67;;;18.50;99.90;;;;;;5112653;28;20631;-68
2023/06/10 04:57:41;;;;;;;7.07;6.47;;;18.50;99.90;;;;;;5113399;28;20552;-67
2023/06/10 05:00:08;;;;;;;7.60;7.00;;;18.60;99.90;;;;;;5112960;28;20414;-68
2023/06/10 05:02:34;;;;;;;6.00;5.60;;;18.70;99.90;;;;;;5113170;28;20177;-68
2023/06/10 05:05:00;;;;;;;7.13;6.57;;;18.70;99.90;;;;;;5113224;28;20914;-68
2023/06/10 05:07:25;;;;;;;7.00;6.50;;;18.80;99.90;;;;;;5112773;28;20189;-68
2023/06/10 05:09:51;;;;;;;7.60;7.00;;;18.90;99.90;;;;;;5112465;28;20187;-68
2023/06/10 05:12:16;;;;;;;7.60;7.00;;;19.00;99.90;;;;;;5113454;28;20172;-69
2023/06/10 05:14:42;;;;;;;7.70;7.03;;;19.10;99.90;;;;;;5112838;28;20165;-68
2023/06/10 05:17:08;;;;;;;7.80;7.20;;;19.30;99.90;;;;;;5112745;28;20204;-68
2023/06/10 05:19:35;;;;;;;7.50;6.80;;;19.40;99.90;;;;;;5113304;28;20177;-67
2023/06/10 05:22:01;;;;;;;7.13;6.60;;;19.50;99.90;;;;;;5113054;28;20184;-68
2023/06/10 05:24:27;;;;;;;7.90;7.20;;;19.60;99.90;;;;;;5112415;28;20410;-68
2023/06/10 05:26:53;;;;;;;7.63;6.97;;;19.70;99.90;;;;;;5112819;28;20452;-68
2023/06/10 05:29:19;;;;;;;8.17;7.57;;;19.90;99.90;;;;;;5113054;28;20212;-68
2023/06/10 05:31:45;;;;;;;6.97;6.47;;;20.00;99.90;;;;;;5112964;28;20589;-68
2023/06/10 05:34:10;;;;;;;7.60;7.00;;;20.10;99.90;;;;;;5112942;28;20441;-68
2023/06/10 05:36:36;;;;;;;8.07;7.37;;;20.20;99.90;;;;;;5112746;28;20216;-69
2023/06/10 05:39:02;;;;;;;7.63;7.03;;;20.30;99.90;;;;;;5112287;28;20220;-69
2023/06/10 05:41:28;;;;;;;7.40;6.80;;;20.40;99.90;;;;;;5112687;28;20173;-69
2023/06/10 05:43:53;;;;;;;6.90;6.30;;;20.50;99.90;;;;;;5115610;28;20783;-69
2023/06/10 05:46:19;;;;;;;8.30;7.57;;;20.60;99.90;;;;;;5116203;28;20180;-69
2023/06/10 05:48:45;;;;;;;8.30;7.60;;;20.70;99.90;;;;;;5116385;28;20200;-69
2023/06/10 05:51:11;;;;;;;6.80;6.30;;;20.90;99.90;;;;;;5116416;28;20518;-69
2023/06/10 05:53:36;;;;;;;7.53;6.93;;;21.00;99.90;;;;;;5116370;28;20264;-69
2023/06/10 05:56:02;;;;;;;6.83;6.33;;;21.10;99.90;;;;;;5116291;28;20168;-69
2023/06/10 05:58:27;;;;;;;7.43;6.83;;;21.30;99.90;;;;;;5116250;28;20733;-69
2023/06/10 06:00:53;;;;;;;8.27;7.47;;;21.50;99.90;;;;;;5116186;28;20552;-69
2023/06/10 06:03:19;;;;;;;8.40;7.60;;;21.60;99.90;;;;;;5116073;28;20247;-69
2023/06/10 06:05:45;;;;;;;7.33;6.73;;;21.50;99.90;;;;;;5116393;28;20181;-69
2023/06/10 06:08:13;;;;;;;7.53;6.93;;;21.40;99.90;;;;;;5115670;28;20287;-68
2023/06/10 06:10:38;;;;;;;6.77;6.27;;;21.40;99.90;;;;;;5115776;28;20402;-69
2023/06/10 06:13:04;;;;;;;7.43;6.73;;;21.20;99.90;;;;;;5116550;28;20405;-68
2023/06/10 06:15:30;;;;;;;7.43;6.83;;;21.20;99.90;;;;;;5116258;28;20169;-69
2023/06/10 06:17:55;;;;;;;8.87;8.07;;;20.90;99.90;;;;;;5115623;28;20693;-69
2023/06/10 06:20:22;;;;;;;7.67;6.97;;;20.90;99.90;;;;;;5115896;28;20172;-69
2023/06/10 06:22:48;;;;;;;8.43;7.73;;;21.10;99.90;;;;;;5115980;28;20237;-69
2023/06/10 06:25:14;;;;;;;7.73;7.13;;;20.80;99.90;;;;;;5114709;28;20427;-69
2023/06/10 06:27:41;;;;;;;7.10;6.50;;;20.90;99.90;;;;;;5115712;28;20481;-68
2023/06/10 06:30:08;;;;;;;7.87;7.17;;;21.00;99.90;;;;;;5115439;28;20924;-69
2023/06/10 06:32:33;;;;;;;7.33;6.83;;;21.30;99.90;;;;;;5115996;28;20472;-68
2023/06/10 06:34:59;;;;;;;7.70;7.00;;;21.30;99.90;;;;;;5116312;28;20448;-69
2023/06/10 06:37:25;;;;;;;7.67;7.07;;;21.30;99.90;;;;;;5115605;28;20185;-69
2023/06/10 06:39:51;;;;;;;8.33;7.63;;;21.20;99.90;;;;;;5115158;28;20592;-69
2023/06/10 06:42:17;;;;;;;7.03;6.40;;;21.40;99.90;;;;;;5115788;28;20407;-69
2023/06/10 06:44:43;;;;;;;7.83;7.00;;;21.80;99.90;;;;;;5115631;28;20438;-68
2023/06/10 06:47:09;;;;;;;7.60;6.90;;;21.80;99.90;;;;;;5115389;28;20418;-69
2023/06/10 06:49:34;;;;;;;7.57;6.90;;;22.00;99.90;;;;;;5115588;28;20252;-69
2023/06/10 06:52:00;;;;;;;7.37;6.77;;;22.40;99.90;;;;;;5114896;28;20168;-68
2023/06/10 06:54:25;;;;;;;7.83;7.10;;;22.60;99.90;;;;;;5114799;28;20296;-69
2023/06/10 06:56:51;;;;;;;7.03;6.43;;;22.60;99.90;;;;;;5115794;28;20306;-69
2023/06/10 06:59:19;;;;;;;7.27;6.67;;;22.50;99.90;;;;;;5115558;28;20188;-69
2023/06/10 07:01:44;;;;;;;7.20;6.50;;;22.60;99.90;;;;;;5115345;28;20176;-69
2023/06/10 07:04:10;;;;;;;7.70;6.53;;;22.60;99.90;;;;;;5115233;28;20492;-69
2023/06/10 07:06:36;;;;;;;7.80;6.80;;;22.90;99.90;;;;;;5115355;28;20259;-68
2023/06/10 07:09:01;;;;;;;6.77;6.27;;;22.80;99.90;;;;;;5114747;28;20200;-69
2023/06/10 07:11:27;;;;;;;7.33;6.73;;;22.80;99.90;;;;;;5115086;28;20180;-69
2023/06/10 07:13:52;;;;;;;7.23;6.57;;;22.60;99.90;;;;;;5115114;28;20631;-69
2023/06/10 07:16:20;;;;;;;6.70;6.17;;;22.50;99.90;;;;;;5114945;28;20168;-68
2023/06/10 07:18:46;;;;;;;7.03;6.47;;;22.60;99.90;;;;;;5114731;28;20192;-69
2023/06/10 07:21:11;;;;;;;7.47;6.87;;;22.60;99.90;;;;;;5114998;28;20467;-68
2023/06/10 07:23:37;;;;;;;7.80;7.10;;;22.60;99.90;;;;;;5113800;28;20203;-69
2023/06/10 07:26:02;;;;;;;7.90;7.30;;;22.70;99.90;;;;;;5114436;28;20316;-69
2023/06/10 07:28:28;;;;;;;7.27;6.67;;;22.70;99.90;;;;;;5114387;28;20216;-68
2023/06/10 07:30:53;;;;;;;7.87;7.20;;;22.70;99.90;;;;;;5114654;28;20165;-69
2023/06/10 07:33:19;;;;;;;8.40;6.73;;;22.80;99.90;;;;;;5114497;28;20646;-69
2023/06/10 07:35:45;;;;;;;7.00;6.40;;;22.80;99.90;;;;;;5114438;28;20650;-68
2023/06/10 07:38:10;;;;;;;8.77;7.57;;;22.80;99.90;;;;;;5114615;28;20685;-69
2023/06/10 07:40:36;;;;;;;6.80;6.30;;;23.00;99.90;;;;;;5113844;28;20172;-69
2023/06/10 07:43:01;;;;;;;6.90;6.30;;;23.00;99.90;;;;;;5114290;28;20681;-69
2023/06/10 07:45:27;;;;;;;7.30;6.70;;;23.20;99.90;;;;;;5114296;28;20631;-69
2023/06/10 07:47:52;;;;;;;8.47;7.60;;;23.40;99.90;;;;;;5113848;28;20284;-69
2023/06/10 07:50:18;;;;;;;7.43;6.83;;;23.40;99.90;;;;;;5113968;28;20177;-69
2023/06/10 07:52:43;;;;;;;8.10;6.93;;;23.50;99.90;;;;;;5114383;28;20602;-69
2023/06/10 07:55:09;;;;;;;7.60;7.00;;;23.50;99.90;;;;;;5113706;28;20176;-69
2023/06/10 07:57:36;;;;;;;6.67;6.17;;;23.50;99.90;;;;;;5113949;28;20192;-69
2023/06/10 08:00:04;;;;;;;7.73;7.03;;;23.30;99.90;;;;;;5114009;28;20173;-69
2023/06/10 08:02:30;;;;;;;10.43;7.50;;;23.30;99.90;;;;;;5114301;28;20410;-69
2023/06/10 08:04:55;;;;;;;7.30;6.60;;;23.40;99.90;;;;;;5113523;28;20475;-69
2023/06/10 08:07:21;;;;;;;7.40;6.80;;;23.60;99.90;;;;;;5113812;28;20494;-67
2023/06/10 08:09:47;;;;;;;7.60;7.00;;;23.80;99.90;;;;;;5113438;28;20185;-67
2023/06/10 08:12:13;;;;;;;7.50;6.90;;;23.80;99.90;;;;;;5114551;28;20893;-67
2023/06/10 08:14:39;;;;;;;7.67;6.97;;;23.80;99.90;;;;;;5114095;28;20556;-67
2023/06/10 08:17:06;;;;;;;8.53;7.73;;;23.80;99.90;;;;;;5113914;28;20402;-67
2023/06/10 08:19:32;;;;;;;7.90;6.80;;;23.80;99.90;;;;;;5114165;28;20645;-68
2023/06/10 08:21:57;;;;;;;7.43;6.83;;;24.00;99.90;;;;;;5095204;28;20461;-67
2023/06/10 08:24:23;;;;;;;7.13;6.53;;;24.00;99.90;;;;;;5112616;28;20537;-67
2023/06/10 08:26:48;;;;;;;7.57;6.80;;;24.00;99.90;;;;;;5114005;28;20173;-67
2023/06/10 08:29:14;;;;;;;6.73;6.23;;;23.80;99.90;;;;;;5113612;28;20706;-67
2023/06/10 08:31:43;;;;;;;8.00;7.20;;;23.90;99.90;;;;;;5113642;28;20168;-68
2023/06/10 08:34:09;;;;;;;6.83;6.33;;;24.00;99.90;;;;;;5113773;28;20160;-68
2023/06/10 08:36:35;;;;;;;6.60;6.10;;;23.80;99.90;;;;;;5113558;28;20395;-68
2023/06/10 08:39:01;;;;;;;6.30;5.80;;;23.70;99.90;;;;;;5113335;28;20192;-67
2023/06/10 08:41:30;;;;;;;7.13;6.63;;;23.80;99.90;;;;;;5115119;28;20164;-68
2023/06/10 08:44:23;;;;;;;8.20;6.67;;;23.80;99.90;;;;;;5114415;28;20412;-68
2023/06/10 08:46:51;;;;;;;6.70;5.90;;;24.00;99.90;;;;;;5111881;28;20475;-68
2023/06/10 08:49:20;;;;;;;7.20;6.60;;;24.10;99.90;;;;;;5114658;28;20446;-67
2023/06/10 08:51:50;;;;;;;6.47;6.03;;;24.30;99.90;;;;;;5113481;28;20399;-68
2023/06/10 08:54:21;;;;;;;6.30;5.83;;;24.50;99.90;;;;;;5113266;28;20418;-68
2023/06/10 08:56:49;;;;;;;6.17;5.67;;;24.50;99.90;;;;;;5115197;28;20397;-67
2023/06/10 08:59:16;;;;;;;6.57;6.07;;;24.50;99.90;;;;;;5113308;28;20509;-67
2023/06/10 09:01:43;;;;;;;6.17;5.67;;;24.60;99.90;;;;;;5113928;28;20770;-67
2023/06/10 09:04:09;;;;;;;6.07;5.57;;;24.80;99.90;;;;;;5113187;28;20908;-67
2023/06/10 09:06:35;;;;;;;4.90;4.60;;;24.80;99.90;;;;;;5113146;28;20542;-68
2023/06/10 09:09:02;;;;;;;5.90;5.40;;;24.90;99.90;;;;;;5112747;28;20196;-68
2023/06/10 09:11:28;;;;;;;5.90;5.40;;;25.20;99.80;;;;;;5112654;28;20405;-68
2023/06/10 09:13:54;;;;;;;6.67;6.17;;;25.00;99.40;;;;;;5112908;28;20395;-67
2023/06/10 09:16:19;;;;;;;5.20;4.70;;;25.10;99.30;;;;;;5113404;28;20248;-67
2023/06/10 09:18:45;;;;;;;6.27;5.40;;;25.10;99.10;;;;;;5117401;28;20279;-68
2023/06/10 09:21:11;;;;;;;5.83;5.33;;;25.00;99.00;;;;;;5117168;28;20179;-67
2023/06/10 09:23:37;;;;;;;5.90;5.40;;;25.00;99.20;;;;;;5116159;28;20512;-68
2023/06/10 09:26:08;;;;;;;6.77;6.17;;;25.00;99.40;;;;;;5117890;28;20401;-68
2023/06/10 09:28:34;;;;;;;6.27;5.77;;;25.30;99.20;;;;;;5116297;28;20458;-67
2023/06/10 09:31:05;;;;;;;6.00;5.47;;;25.30;99.20;;;;;;5116398;28;20456;-67
2023/06/10 09:33:30;;;;;;;6.50;6.00;;;25.20;99.20;;;;;;5116556;28;20165;-67
2023/06/10 09:36:00;;;;;;;6.00;5.50;;;25.20;99.10;;;;;;5098151;28;20446;-68
2023/06/10 09:38:31;;;;;;;5.93;5.53;;;25.10;99.10;;;;;;5116731;28;20604;-68
2023/06/10 09:40:56;;;;;;;5.73;5.33;;;25.30;99.30;;;;;;5117549;28;20416;-67
2023/06/10 09:43:22;;;;;;;6.13;5.73;;;25.60;98.80;;;;;;5117042;28;20402;-68
2023/06/10 09:45:49;;;;;;;6.50;5.90;;;25.80;98.30;;;;;;5117454;28;20187;-69
2023/06/10 09:48:15;;;;;;;6.20;5.70;;;25.80;97.90;;;;;;5117792;28;20242;-68
2023/06/10 09:50:44;;;;;;;6.43;5.93;;;26.00;98.10;;;;;;5118108;28;20439;-68
2023/06/10 09:53:10;;;;;;;6.40;5.90;;;26.00;97.60;;;;;;5117722;28;20214;-68
2023/06/10 09:55:40;;;;;;;5.80;5.30;;;26.10;97.10;;;;;;5116419;28;20482;-66
2023/06/10 09:58:06;;;;;;;6.10;4.83;;;26.10;97.10;;;;;;5116234;28;20483;-68
2023/06/10 10:00:36;;;;;;;6.10;5.60;;;26.30;97.20;;;;;;5116366;28;20414;-68
2023/06/10 10:03:02;;;;;;;6.80;6.20;;;26.30;96.90;;;;;;5115944;28;20273;-67
2023/06/10 10:05:28;;;;;;;6.20;5.60;;;26.20;97.00;;;;;;5116809;28;20942;-68
2023/06/10 10:07:53;;;;;;;7.00;6.40;;;26.30;97.20;;;;;;5117221;28;20542;-68
2023/06/10 10:10:21;;;;;;;6.43;5.93;;;26.10;97.00;;;;;;5116923;28;20192;-68
2023/06/10 10:12:48;;;;;;;6.70;6.20;;;26.00;97.30;;;;;;5116056;28;20327;-68
2023/06/10 10:15:17;;;;;;;6.60;6.10;;;26.10;97.40;;;;;;5116667;28;20448;-68
2023/06/10 10:17:55;;;;;;;5.80;5.40;;;26.40;96.80;;;;;;5116408;28;20519;-68
2023/06/10 10:20:26;;;;;;;7.00;6.40;;;26.60;96.50;;;;;;5116423;28;20455;-68
2023/06/10 10:22:55;;;;;;;6.47;5.87;;;26.90;96.40;;;;;;5116160;28;20426;-68
2023/06/10 10:25:25;;;;;;;5.90;5.50;;;27.00;95.70;;;;;;5114420;28;20430;-68
2023/06/10 10:28:03;;;;;;;6.83;5.60;;;27.00;95.70;;;;;;5115004;28;20469;-69
2023/06/10 10:30:33;;;;;;;5.63;5.13;;;27.00;95.20;;;;;;5115740;28;20427;-68
2023/06/10 10:33:12;;;;;;;5.90;5.40;;;26.90;95.70;;;;;;5116042;28;20435;-68
2023/06/10 10:35:38;;;;;;;6.40;5.90;;;27.10;94.90;;;;;;5115660;28;20474;-69
2023/06/10 10:38:04;;;;;;;6.53;5.93;;;27.20;94.50;;;;;;5115782;28;20434;-68
2023/06/10 10:40:32;;;;;;;6.33;5.73;;;27.00;94.80;;;;;;5113013;28;20411;-68
2023/06/10 10:42:59;;;;;;;6.87;6.37;;;27.30;95.00;;;;;;5115486;28;20477;-68
2023/06/10 10:45:28;;;;;;;5.83;5.33;;;27.40;94.20;;;;;;5116430;28;20422;-68
2023/06/10 10:47:57;;;;;;;6.87;6.27;;;27.50;94.30;;;;;;5115975;28;20454;-68
2023/06/10 10:50:24;;;;;;;5.43;5.03;;;27.80;93.80;;;;;;5116292;28;20492;-68
2023/06/10 10:52:55;;;;;;;5.50;5.10;;;28.10;92.50;;;;;;5115815;28;20402;-68
2023/06/10 10:55:22;;;;;;;5.93;5.43;;;28.00;92.00;;;;;;5115524;28;20414;-68
2023/06/10 10:58:16;;;;;;;5.70;5.30;;;28.10;92.50;;;;;;5116105;28;20509;-68
2023/06/10 11:00:45;;;;;;;5.00;4.60;;;28.00;91.70;;;;;;5113062;28;20411;-68
2023/06/10 11:03:18;;;;;;;5.47;5.03;;;27.80;91.60;;;;;;5115364;28;20409;-68
2023/06/10 11:05:49;;;;;;;5.77;5.37;;;27.60;91.70;;;;;;5115176;28;20386;-67
2023/06/10 11:08:35;;;;;;;5.57;5.07;;;27.80;92.10;;;;;;5114712;28;20620;-68
2023/06/10 11:11:17;;;;;;;6.10;5.60;;;28.10;91.30;;;;;;5114385;28;20411;-68
2023/06/10 11:14:08;;;;;;;5.90;5.40;;;28.10;91.20;;;;;;5114771;28;20383;-69
2023/06/10 11:16:41;;;;;;;5.93;5.53;;;27.60;91.80;;;;;;5114588;28;20403;-68
2023/06/10 11:19:07;;;;;;;5.93;5.43;;;27.30;92.30;;;;;;5113990;28;20426;-69
2023/06/10 11:21:57;;;;;;;6.20;5.50;;;27.40;92.20;;;;;;5114455;28;20498;-68
2023/06/10 11:24:22;;;;;;;6.30;5.80;;;27.70;92.50;;;;;;5112781;28;20213;-68
2023/06/10 11:26:48;;;;;;;5.67;5.17;;;27.90;91.80;;;;;;5114340;28;21072;-68
2023/06/10 11:29:15;;;;;;;5.70;5.30;;;28.10;91.60;;;;;;5135043;22;20255;-68
2023/06/10 11:31:44;;;;;;;5.90;5.50;;;28.00;91.90;;;;;;5114148;28;20643;-68
2023/06/10 11:34:10;;;;;;;5.70;5.20;;;28.30;92.20;;;;;;5114294;28;20409;-69
2023/06/10 11:36:42;;;;;;;5.50;5.10;;;30.00;88.80;;;;;;5113934;28;20881;-68
2023/06/10 11:39:08;;;;;;;5.70;5.30;;;31.70;82.00;;;;;;5113470;28;20779;-69
2023/06/10 11:41:36;;;;;;;6.30;5.80;;;32.40;79.10;;;;;;5113020;28;20795;-68
2023/06/10 11:44:12;;;;;;;6.03;5.60;;;33.00;74.90;;;;;;5114010;28;20394;-68
2023/06/10 11:46:39;;;;;;;6.50;5.50;;;32.10;75.00;;;;;;5114249;28;20481;-69
2023/06/10 11:49:05;;;;;;;5.07;4.67;;;31.30;75.90;;;;;;5113503;28;20523;-68
2023/06/10 11:51:36;;;;;;;5.53;5.13;;;31.30;74.30;;;;;;5113097;28;20411;-68
2023/06/10 11:54:03;;;;;;;5.53;5.13;;;32.80;72.10;;;;;;5113506;28;20489;-68
2023/06/10 11:56:30;;;;;;;6.13;4.53;;;33.50;67.80;;;;;;5113526;28;20512;-69
2023/06/10 11:59:06;;;;;;;5.87;5.37;;;35.20;65.40;;;;;;5113414;28;20419;-69
2023/06/10 12:01:34;;;;;;;6.63;4.40;;;34.70;63.80;;;;;;5113636;28;20379;-68
2023/06/10 12:04:07;;;;;;;4.70;4.40;;;34.90;62.50;;;;;;5113455;28;20778;-69
2023/06/10 12:06:50;;;;;;;5.70;5.17;;;35.50;60.60;;;;;;5113260;28;20804;-68
2023/06/10 12:09:26;;;;;;;5.50;4.87;;;34.60;61.30;;;;;;5112944;28;20449;-70
2023/06/10 12:11:56;;;;;;;5.00;4.60;;;33.80;62.30;;;;;;5113215;28;20898;-68
2023/06/10 12:14:57;;;;;;;4.97;4.57;;;34.00;61.80;;;;;;5113740;28;20897;-68
2023/06/10 12:17:32;;;;;;;6.10;5.60;;;33.30;62.60;;;;;;5114102;28;20451;-69
2023/06/10 12:19:58;;;;;;;5.83;5.33;;;31.20;66.90;;;;;;5094852;28;20429;-69
2023/06/10 12:22:25;;;;;;;5.50;5.00;;;31.10;66.90;;;;;;5113256;28;20426;-68
2023/06/10 12:25:02;;;;;;;6.03;5.43;;;31.40;67.80;;;;;;5112119;28;20932;-69
2023/06/10 12:27:29;;;;;;;5.30;4.90;;;31.40;66.80;;;;;;5112774;28;20398;-68
2023/06/10 12:29:55;;;;;;;5.00;4.60;;;29.70;69.50;;;;;;5113049;28;20391;-69
2023/06/10 12:32:27;;;;;;;4.33;4.03;;;29.40;70.70;;;;;;5112846;28;20442;-68
2023/06/10 12:35:05;;;;;;;5.00;4.60;;;29.20;70.80;;;;;;5113219;28;20386;-68
2023/06/10 12:37:33;;;;;;;5.63;5.13;;;29.10;70.80;;;;;;5113070;28;20398;-68
2023/06/10 12:40:02;;;;;;;6.30;5.70;;;29.10;71.30;;;;;;5094555;28;20406;-68
2023/06/10 12:42:30;;;;;;;5.33;5.03;;;29.10;71.40;;;;;;5112910;28;20467;-68
2023/06/10 12:45:00;;;;;;;5.43;4.97;;;29.30;72.20;;;;;;5113074;28;20422;-68
2023/06/10 12:47:34;;;;;;;5.40;5.00;;;29.40;73.10;;;;;;5112909;28;20394;-68
2023/06/10 12:50:01;;;;;;;6.30;5.70;;;29.20;71.70;;;;;;5112255;28;20929;-68